Observation data for Tatum on 03/11/2018      Previous  Date  Next       Current Mesonet Observations  Soil Data  Daily Summary Page  Observations in Plain Language
KTAT 110600Z 33013G18KT 18/M07 A2995 RMK A01 T01801073  RH  017%=      5-min Rain = 0
KTAT 110605Z 34019G29KT 18/M08 A2996 RMK A01 T01831081  RH  016%=      5-min Rain = 0
KTAT 110610Z 36020G29KT 17/M11 A2998 RMK A01 T01671105  RH  014%=      5-min Rain = 0
KTAT 110615Z 01020G25KT 16/M11 A2998 RMK A01 T01601109  RH  015%=      5-min Rain = 0
KTAT 110620Z 01022G30KT 16/M11 A2999 RMK A01 T01581110  RH  015%=      5-min Rain = 0
KTAT 110625Z 02020G25KT 16/M11 A2999 RMK A01 T01551110  RH  015%=      5-min Rain = 0
KTAT 110630Z 01021G30KT 15/M11 A30 RMK A01 T01521110  RH  015%=      5-min Rain = 0
KTAT 110635Z 02024G33KT 15/M11 A30 RMK A01 T01481109  RH  016%=      5-min Rain = 0
KTAT 110640Z 02024G29KT 14/M11 A3001 RMK A01 T01431106  RH  017%=      5-min Rain = 0
KTAT 110645Z 03026G34KT 14/M09 A3001 RMK A01 T01391094  RH  019%=      5-min Rain = 0
KTAT 110650Z 02024G29KT 14/M09 A3001 RMK A01 T01361091  RH  020%=      5-min Rain = 0
KTAT 110655Z 01021G26KT 13/M09 A3002 RMK A01 T01331091  RH  020%=      5-min Rain = 0
KTAT 110700Z 01024G34KT 13/M09 A3002 RMK A01 T01291092  RH  020%=      5-min Rain = 0
KTAT 110705Z 01025G34KT 12/M09 A3002 RMK A01 T01231089  RH  022%=      5-min Rain = 0
KTAT 110710Z 01024G32KT 12/M09 A3003 RMK A01 T01191085  RH  023%=      5-min Rain = 0
KTAT 110715Z 01023G31KT 12/M08 A3003 RMK A01 T01161082  RH  024%=      5-min Rain = 0
KTAT 110720Z 02024G31KT 11/M08 A3003 RMK A01 T01141079  RH  025%=      5-min Rain = 0
KTAT 110725Z 01023G29KT 11/M08 A3004 RMK A01 T01121077  RH  026%=      5-min Rain = 0
KTAT 110730Z 01023G28KT 11/M08 A3004 RMK A01 T01101075  RH  026%=      5-min Rain = 0
KTAT 110735Z 02023G29KT 11/M07 A3005 RMK A01 T01081074  RH  027%=      5-min Rain = 0
KTAT 110740Z 02024G34KT 11/M07 A3005 RMK A01 T01071073  RH  028%=      5-min Rain = 0
KTAT 110745Z 02022G29KT 11/M07 A3006 RMK A01 T01051073  RH  028%=      5-min Rain = 0
KTAT 110750Z 02020G28KT 10/M07 A3006 RMK A01 T01031073  RH  028%=      5-min Rain = 0
KTAT 110755Z 02020G25KT 10/M07 A3006 RMK A01 T01011073  RH  029%=      5-min Rain = 0
KTAT 110800Z 02019G27KT 10/M07 A3006 RMK A01 T00981073  RH  029%=      5-min Rain = 0
KTAT 110805Z 02020G28KT 10/M07 A3006 RMK A01 T00981073  RH  029%=      5-min Rain = 0
KTAT 110810Z 02020G30KT 10/M07 A3006 RMK A01 T00951074  RH  030%=      5-min Rain = 0
KTAT 110815Z 02021G26KT 09/M07 A3007 RMK A01 T00941073  RH  030%=      5-min Rain = 0
KTAT 110820Z 02020G29KT 10/M07 A3007 RMK A01 T00951073  RH  030%=      5-min Rain = 0
KTAT 110825Z 02018G23KT 09/M07 A3007 RMK A01 T00921074  RH  030%=      5-min Rain = 0
KTAT 110830Z 01019G27KT 09/M07 A3008 RMK A01 T00911074  RH  030%=      5-min Rain = 0
KTAT 110835Z 02020G28KT 09/M07 A3008 RMK A01 T00901074  RH  031%=      5-min Rain = 0
KTAT 110840Z 01020G27KT 09/M07 A3008 RMK A01 T00881074  RH  031%=      5-min Rain = 0
KTAT 110845Z 02021G28KT 09/M07 A3008 RMK A01 T00871073  RH  031%=      5-min Rain = 0
KTAT 110850Z 02021G26KT 09/M07 A3008 RMK A01 T00861070  RH  032%=      5-min Rain = 0
KTAT 110855Z 02021G28KT 09/M07 A3008 RMK A01 T00861069  RH  033%=      5-min Rain = 0
KTAT 110900Z 02022G31KT 09/M07 A3008 RMK A01 T00861067  RH  033%=      5-min Rain = 0
KTAT 110905Z 02023G31KT 09/M07 A3008 RMK A01 T00871066  RH  033%=      5-min Rain = 0
KTAT 110910Z 02023G30KT 09/M07 A3008 RMK A01 T00861065  RH  034%=      5-min Rain = 0
KTAT 110915Z 02022G30KT 09/M06 A3008 RMK A01 T00861064  RH  034%=      5-min Rain = 0
KTAT 110920Z 03021G30KT 09/M06 A3008 RMK A01 T00861064  RH  034%=      5-min Rain = 0
KTAT 110925Z 02019G26KT 09/M06 A3009 RMK A01 T00851064  RH  034%=      5-min Rain = 0
KTAT 110930Z 02019G25KT 08/M06 A3008 RMK A01 T00841064  RH  034%=      5-min Rain = 0
KTAT 110935Z 02018G26KT 08/M06 A3009 RMK A01 T00831064  RH  035%=      5-min Rain = 0
KTAT 110940Z 02019G25KT 08/M06 A3009 RMK A01 T00841064  RH  034%=      5-min Rain = 0
KTAT 110945Z 02017G23KT 08/M07 A3009 RMK A01 T00831065  RH  034%=      5-min Rain = 0
KTAT 110950Z 03020G26KT 08/M06 A3009 RMK A01 T00831064  RH  035%=      5-min Rain = 0
KTAT 110955Z 03017G23KT 08/M07 A3009 RMK A01 T00831065  RH  035%=      5-min Rain = 0
KTAT 111000Z 03017G26KT 08/M07 A3009 RMK A01 T00811066  RH  035%=      5-min Rain = 0
KTAT 111005Z 03019G26KT 08/M07 A3009 RMK A01 T00821066  RH  034%=      5-min Rain = 0
KTAT 111010Z 03018G24KT 08/M07 A3009 RMK A01 T00821068  RH  034%=      5-min Rain = 0
KTAT 111015Z 03018G23KT 08/M07 A3009 RMK A01 T00811070  RH  034%=      5-min Rain = 0
KTAT 111020Z 03018G28KT 08/M07 A3009 RMK A01 T00811071  RH  033%=      5-min Rain = 0
KTAT 111025Z 03020G27KT 08/M07 A3009 RMK A01 T00811072  RH  033%=      5-min Rain = 0
KTAT 111030Z 03021G28KT 08/M07 A301 RMK A01 T00811073  RH  033%=      5-min Rain = 0
KTAT 111035Z 03019G28KT 08/M07 A301 RMK A01 T00811073  RH  033%=      5-min Rain = 0
KTAT 111040Z 03020G25KT 08/M07 A3011 RMK A01 T00801073  RH  033%=      5-min Rain = 0
KTAT 111045Z 03020G25KT 08/M07 A3011 RMK A01 T00801073  RH  033%=      5-min Rain = 0
KTAT 111050Z 02018KT 08/M07 A3011 RMK A01 T00801074  RH  033%=      5-min Rain = 0
KTAT 111055Z 03019G24KT 08/M07 A3011 RMK A01 T00791074  RH  033%=      5-min Rain = 0
KTAT 111100Z 03019G25KT 08/M07 A3011 RMK A01 T00791074  RH  033%=      5-min Rain = 0
KTAT 111105Z 03016KT 08/M07 A3012 RMK A01 T00781074  RH  033%=      5-min Rain = 0
KTAT 111110Z 03017G22KT 08/M07 A3012 RMK A01 T00771074  RH  033%=      5-min Rain = 0
KTAT 111115Z 02016G23KT 08/M07 A3013 RMK A01 T00761074  RH  034%=      5-min Rain = 0
KTAT 111120Z 02016G21KT 08/M08 A3013 RMK A01 T00771075  RH  033%=      5-min Rain = 0
KTAT 111125Z 03017G22KT 08/M08 A3013 RMK A01 T00761075  RH  033%=      5-min Rain = 0
KTAT 111130Z 02013G18KT 07/M08 A3013 RMK A01 T00741076  RH  034%=      5-min Rain = 0
KTAT 111135Z 03014KT 07/M08 A3013 RMK A01 T00741076  RH  034%=      5-min Rain = 0
KTAT 111140Z 03015KT 07/M08 A3013 RMK A01 T00731077  RH  033%=      5-min Rain = 0
KTAT 111145Z 03015G22KT 07/M08 A3014 RMK A01 T00741078  RH  033%=      5-min Rain = 0
KTAT 111150Z 03015G20KT 07/M08 A3014 RMK A01 T00741078  RH  033%=      5-min Rain = 0
KTAT 111155Z 03015KT 08/M08 A3015 RMK A01 T00751078  RH  033%=      5-min Rain = 0
KTAT 111200Z 02017G23KT 08/M08 A3015 RMK A01 T00751079  RH  032%=      5-min Rain = 0
KTAT 111205Z 03019G25KT 08/M08 A3016 RMK A01 T00761080  RH  032%=      5-min Rain = 0
KTAT 111210Z 03017KT 08/M08 A3016 RMK A01 T00761081  RH  032%=      5-min Rain = 0
KTAT 111215Z 02013G18KT 08/M08 A3017 RMK A01 T00751081  RH  032%=      5-min Rain = 0
KTAT 111220Z 02014G19KT 07/M08 A3017 RMK A01 T00741079  RH  033%=      5-min Rain = 0
KTAT 111225Z 02018G23KT 07/M08 A3017 RMK A01 T00741080  RH  033%=      5-min Rain = 0
KTAT 111230Z 02019G26KT 07/M08 A3018 RMK A01 T00741080  RH  032%=      5-min Rain = 0
KTAT 111235Z 02020G26KT 07/M08 A3018 RMK A01 T00741079  RH  033%=      5-min Rain = 0
KTAT 111240Z 03019G24KT 07/M08 A3019 RMK A01 T00731079  RH  033%=      5-min Rain = 0
KTAT 111245Z 03016G21KT 07/M08 A3019 RMK A01 T00721079  RH  033%=      5-min Rain = 0
KTAT 111250Z 02017G25KT 07/M08 A3019 RMK A01 T00711079  RH  033%=      5-min Rain = 0
KTAT 111255Z 02017G23KT 07/M08 A302 RMK A01 T00701079  RH  034%=      5-min Rain = 0
KTAT 111300Z 03017G23KT 07/M08 A302 RMK A01 T00691080  RH  034%=      5-min Rain = 0
KTAT 111305Z 03018KT 07/M08 A3021 RMK A01 T00681081  RH  034%=      5-min Rain = 0
KTAT 111310Z 03018G23KT 07/M08 A3021 RMK A01 T00671083  RH  033%=      5-min Rain = 0
KTAT 111315Z 03017G23KT 07/M09 A3021 RMK A01 T00661085  RH  033%=      5-min Rain = 0
KTAT 111320Z 03016G23KT 07/M09 A3021 RMK A01 T00661086  RH  033%=      5-min Rain = 0
KTAT 111325Z 03016G21KT 07/M09 A3021 RMK A01 T00651086  RH  033%=      5-min Rain = 0
KTAT 111330Z 03014G20KT 06/M09 A3021 RMK A01 T00641087  RH  033%=      5-min Rain = 0
KTAT 111335Z 03015KT 06/M09 A3021 RMK A01 T00641088  RH  033%=      5-min Rain = 0
KTAT 111340Z 03017G22KT 06/M09 A3022 RMK A01 T00641088  RH  033%=      5-min Rain = 0
KTAT 111345Z 03019G25KT 06/M09 A3023 RMK A01 T00641089  RH  032%=      5-min Rain = 0
KTAT 111350Z 03019G24KT 06/M09 A3023 RMK A01 T00641089  RH  032%=      5-min Rain = 0
KTAT 111355Z 03016G22KT 06/M09 A3024 RMK A01 T00641089  RH  032%=      5-min Rain = 0
KTAT 111400Z 03016KT 06/M09 A3024 RMK A01 T00641089  RH  032%=      5-min Rain = 0
KTAT 111405Z 03014KT 06/M09 A3024 RMK A01 T00641089  RH  032%=      5-min Rain = 0
KTAT 111410Z 02015G20KT 07/M09 A3024 RMK A01 T00651089  RH  032%=      5-min Rain = 0
KTAT 111415Z 03015G20KT 07/M09 A3024 RMK A01 T00651089  RH  032%=      5-min Rain = 0
KTAT 111420Z 03016KT 07/M09 A3025 RMK A01 T00651089  RH  032%=      5-min Rain = 0
KTAT 111425Z 03016G21KT 07/M09 A3025 RMK A01 T00651089  RH  032%=      5-min Rain = 0
KTAT 111430Z 03016G22KT 07/M09 A3025 RMK A01 T00661089  RH  032%=      5-min Rain = 0
KTAT 111435Z 02018KT 06/M09 A3026 RMK A01 T00641088  RH  033%=      5-min Rain = 0
KTAT 111440Z 02018KT 06/M09 A3026 RMK A01 T00641088  RH  033%=      5-min Rain = 0
KTAT 111445Z 03016G22KT 07/M09 A3026 RMK A01 T00651088  RH  033%=      5-min Rain = 0
KTAT 111450Z 03017KT 07/M09 A3026 RMK A01 T00651089  RH  032%=      5-min Rain = 0
KTAT 111455Z 03014G19KT 07/M09 A3027 RMK A01 T00661089  RH  032%=      5-min Rain = 0
KTAT 111500Z 02013G18KT 07/M09 A3028 RMK A01 T00661088  RH  032%=      5-min Rain = 0
KTAT 111505Z 03012KT 07/M09 A3028 RMK A01 T00691087  RH  032%=      5-min Rain = 0
KTAT 111510Z 02015G22KT 07/M09 A3027 RMK A01 T00701090  RH  031%=      5-min Rain = 0
KTAT 111515Z 03016G22KT 07/M10 A3028 RMK A01 T00701098  RH  029%=      5-min Rain = 0
KTAT 111520Z 03017KT 07/M10 A3028 RMK A01 T00691103  RH  028%=      5-min Rain = 0
KTAT 111525Z 03016G21KT 07/M10 A3028 RMK A01 T00721104  RH  027%=      5-min Rain = 0
KTAT 111530Z 03016KT 07/M10 A3029 RMK A01 T00741103  RH  027%=      5-min Rain = 0
KTAT 111535Z 03017G22KT 08/M11 A3029 RMK A01 T00761106  RH  026%=      5-min Rain = 0
KTAT 111540Z 03016G21KT 08/M10 A3029 RMK A01 T00781104  RH  026%=      5-min Rain = 0
KTAT 111545Z 02018KT 08/M11 A3029 RMK A01 T00751108  RH  026%=      5-min Rain = 0
KTAT 111550Z 03017KT 07/M11 A303 RMK A01 T00731107  RH  026%=      5-min Rain = 0
KTAT 111555Z 03015G21KT 08/M11 A303 RMK A01 T00761106  RH  026%=      5-min Rain = 0
KTAT 111600Z 03018G23KT 07/M11 A303 RMK A01 T00741110  RH  026%=      5-min Rain = 0
KTAT 111605Z 04016G21KT 08/M11 A3031 RMK A01 T00751108  RH  026%=      5-min Rain = 0
KTAT 111610Z 03016KT 08/M11 A3031 RMK A01 T00761107  RH  026%=      5-min Rain = 0
KTAT 111615Z 03016KT 08/M11 A3031 RMK A01 T00781106  RH  026%=      5-min Rain = 0
KTAT 111620Z 03016KT 08/M11 A3031 RMK A01 T00771109  RH  025%=      5-min Rain = 0
KTAT 111625Z 03015G23KT 08/M11 A3031 RMK A01 T00781110  RH  025%=      5-min Rain = 0
KTAT 111630Z 04016KT 08/M11 A3031 RMK A01 T00781112  RH  024%=      5-min Rain = 0
KTAT 111635Z 03015G20KT 08/M11 A3031 RMK A01 T00801111  RH  024%=      5-min Rain = 0
KTAT 111640Z 03014KT 08/M11 A3031 RMK A01 T00821112  RH  024%=      5-min Rain = 0
KTAT 111645Z 03014KT 08/M11 A3032 RMK A01 T00841112  RH  024%=      5-min Rain = 0
KTAT 111650Z 03014KT 08/M11 A3031 RMK A01 T00821109  RH  024%=      5-min Rain = 0
KTAT 111655Z 03015G20KT 08/M11 A3031 RMK A01 T00841110  RH  024%=      5-min Rain = 0
KTAT 111700Z 03013G18KT 08/M11 A3032 RMK A01 T00841108  RH  024%=      5-min Rain = 0
KTAT 111705Z 02014G19KT 08/M11 A3032 RMK A01 T00811106  RH  025%=      5-min Rain = 0
KTAT 111710Z 03013G18KT 08/M11 A3032 RMK A01 T00831107  RH  025%=      5-min Rain = 0
KTAT 111715Z 04013G18KT 08/M11 A3032 RMK A01 T00831107  RH  025%=      5-min Rain = 0
KTAT 111720Z 04012KT 08/M11 A3032 RMK A01 T00831105  RH  025%=      5-min Rain = 0
KTAT 111725Z 03014KT 08/M11 A3033 RMK A01 T00811107  RH  025%=      5-min Rain = 0
KTAT 111730Z 03013KT 08/M11 A3033 RMK A01 T00811107  RH  025%=      5-min Rain = 0
KTAT 111735Z 03013G18KT 08/M11 A3033 RMK A01 T00801106  RH  025%=      5-min Rain = 0
KTAT 111740Z 04013KT 08/M10 A3033 RMK A01 T00801104  RH  026%=      5-min Rain = 0
KTAT 111745Z 03012KT 08/M10 A3033 RMK A01 T00791101  RH  027%=      5-min Rain = 0
KTAT 111750Z 03012KT 08/M10 A3033 RMK A01 T00781100  RH  027%=      5-min Rain = 0
KTAT 111755Z 04014KT 08/M10 A3033 RMK A01 T00771104  RH  026%=      5-min Rain = 0
KTAT 111800Z 03014KT 08/M11 A3033 RMK A01 T00771105  RH  026%=      5-min Rain = 0
KTAT 111805Z 02013KT 08/M10 A3033 RMK A01 T00771103  RH  027%=      5-min Rain = 0
KTAT 111810Z 03013KT 08/M10 A3033 RMK A01 T00781102  RH  027%=      5-min Rain = 0
KTAT 111815Z 03013KT 08/M10 A3033 RMK A01 T00791102  RH  026%=      5-min Rain = 0
KTAT 111820Z 02012G17KT 08/M10 A3032 RMK A01 T00801102  RH  026%=      5-min Rain = 0
KTAT 111825Z 02014KT 08/M10 A3033 RMK A01 T00821103  RH  026%=      5-min Rain = 0
KTAT 111830Z 03014KT 08/M10 A3033 RMK A01 T00811104  RH  026%=      5-min Rain = 0
KTAT 111835Z 03013KT 08/M10 A3033 RMK A01 T00841101  RH  026%=      5-min Rain = 0
KTAT 111840Z 02011G16KT 09/M10 A3032 RMK A01 T00861101  RH  025%=      5-min Rain = 0
KTAT 111845Z 02013G18KT 08/M11 A3033 RMK A01 T00831106  RH  025%=      5-min Rain = 0
KTAT 111850Z 04013G18KT 08/M11 A3032 RMK A01 T00831106  RH  025%=      5-min Rain = 0
KTAT 111855Z 04013G18KT 08/M10 A3032 RMK A01 T00831104  RH  025%=      5-min Rain = 0
KTAT 111900Z 03012KT 09/M10 A3032 RMK A01 T00851103  RH  025%=      5-min Rain = 0
KTAT 111905Z 04012KT 09/M10 A3032 RMK A01 T00891102  RH  025%=      5-min Rain = 0
KTAT 111910Z 03013KT 09/M10 A3032 RMK A01 T00911101  RH  025%=      5-min Rain = 0
KTAT 111915Z 03015KT 09/M10 A3031 RMK A01 T00891103  RH  024%=      5-min Rain = 0
KTAT 111920Z 03012KT 09/M10 A3031 RMK A01 T00881103  RH  024%=      5-min Rain = 0
KTAT 111925Z 04013KT 09/M10 A3031 RMK A01 T00911101  RH  025%=      5-min Rain = 0
KTAT 111930Z 03014KT 09/M10 A303 RMK A01 T00921101  RH  024%=      5-min Rain = 0
KTAT 111935Z 03014G20KT 09/M10 A303 RMK A01 T00921102  RH  024%=      5-min Rain = 0
KTAT 111940Z 04012KT 09/M10 A303 RMK A01 T00941102  RH  024%=      5-min Rain = 0
KTAT 111945Z 03014KT 09/M10 A303 RMK A01 T00931100  RH  024%=      5-min Rain = 0
KTAT 111950Z 03013KT 09/M10 A303 RMK A01 T00921096  RH  025%=      5-min Rain = 0
KTAT 111955Z 03012KT 09/M10 A303 RMK A01 T00941095  RH  025%=      5-min Rain = 0
KTAT 112000Z 03012G18KT 10/M09 A3029 RMK A01 T00981091  RH  025%=      5-min Rain = 0
KTAT 112005Z 02012G17KT 10/M09 A3029 RMK A01 T01021093  RH  024%=      5-min Rain = 0
KTAT 112010Z 03014KT 10/M09 A3029 RMK A01 T01021094  RH  024%=      5-min Rain = 0
KTAT 112015Z 03012G17KT 10/M10 A3029 RMK A01 T00981097  RH  024%=      5-min Rain = 0
KTAT 112020Z 03014KT 09/M10 A3029 RMK A01 T00941096  RH  025%=      5-min Rain = 0
KTAT 112025Z 03014G19KT 09/M09 A3029 RMK A01 T00901092  RH  027%=      5-min Rain = 0
KTAT 112030Z 03012KT 09/M09 A3029 RMK A01 T00891090  RH  027%=      5-min Rain = 0
KTAT 112035Z 03012KT 09/M08 A3029 RMK A01 T00891084  RH  029%=      5-min Rain = 0
KTAT 112040Z 03012KT 09/M08 A3029 RMK A01 T00881077  RH  030%=      5-min Rain = 0
KTAT 112045Z 04011KT 09/M08 A3029 RMK A01 T00881077  RH  030%=      5-min Rain = 0
KTAT 112050Z 03012G17KT 09/M08 A3029 RMK A01 T00891080  RH  029%=      5-min Rain = 0
KTAT 112055Z 03012KT 09/M08 A3029 RMK A01 T00861082  RH  030%=      5-min Rain = 0
KTAT 112100Z 03011G17KT 08/M08 A3029 RMK A01 T00841078  RH  031%=      5-min Rain = 0
KTAT 112105Z 03011KT 09/M07 A3029 RMK A01 T00851066  RH  034%=      5-min Rain = 0
KTAT 112110Z 02012G17KT 08/M05 A3029 RMK A01 T00831054  RH  037%=      5-min Rain = 0
KTAT 112115Z 04011KT 08/M05 A3029 RMK A01 T00841051  RH  038%=      5-min Rain = 0
KTAT 112120Z 03012KT 09/M05 A3028 RMK A01 T00851047  RH  039%=      5-min Rain = 0
KTAT 112125Z 05011KT 09/M05 A3028 RMK A01 T00871047  RH  039%=      5-min Rain = 0
KTAT 112130Z 04011KT 09/M05 A3028 RMK A01 T00881053  RH  037%=      5-min Rain = 0
KTAT 112135Z 05010KT 09/M05 A3029 RMK A01 T00891054  RH  036%=      5-min Rain = 0
KTAT 112140Z 04010KT 09/M06 A3028 RMK A01 T00881059  RH  035%=      5-min Rain = 0
KTAT 112145Z 04010KT 09/M07 A3028 RMK A01 T00901065  RH  033%=      5-min Rain = 0
KTAT 112150Z 03009KT 09/M07 A3028 RMK A01 T00911067  RH  032%=      5-min Rain = 0
KTAT 112155Z 03007KT 09/M07 A3028 RMK A01 T00931065  RH  032%=      5-min Rain = 0
KTAT 112200Z 04008KT 09/M07 A3028 RMK A01 T00941069  RH  031%=      5-min Rain = 0
KTAT 112205Z 02007KT 09/M07 A3028 RMK A01 T00941074  RH  030%=      5-min Rain = 0
KTAT 112210Z 03008KT 10/M07 A3028 RMK A01 T00951073  RH  030%=      5-min Rain = 0
KTAT 112215Z 03008KT 10/M07 A3027 RMK A01 T00971074  RH  029%=      5-min Rain = 0
KTAT 112220Z 05007KT 10/M07 A3027 RMK A01 T01001074  RH  029%=      5-min Rain = 0
KTAT 112225Z 04008KT 10/M08 A3027 RMK A01 T01031076  RH  028%=      5-min Rain = 0
KTAT 112230Z 05007KT 11/M08 A3027 RMK A01 T01051077  RH  027%=      5-min Rain = 0
KTAT 112235Z 05009KT 11/M08 A3027 RMK A01 T01051078  RH  027%=      5-min Rain = 0
KTAT 112240Z 06006G13KT 11/M08 A3027 RMK A01 T01061078  RH  027%=      5-min Rain = 0
KTAT 112245Z 05007G13KT 11/M08 A3027 RMK A01 T01061079  RH  026%=      5-min Rain = 0
KTAT 112250Z 05007KT 11/M08 A3027 RMK A01 T01071078  RH  026%=      5-min Rain = 0
KTAT 112255Z 03009KT 11/M08 A3027 RMK A01 T01091079  RH  026%=      5-min Rain = 0
KTAT 112300Z 06008G13KT 11/M08 A3027 RMK A01 T01141078  RH  025%=      5-min Rain = 0
KTAT 112305Z 05008KT 11/M08 A3027 RMK A01 T01131082  RH  025%=      5-min Rain = 0
KTAT 112310Z 03009G14KT 11/M09 A3028 RMK A01 T01071088  RH  024%=      5-min Rain = 0
KTAT 112315Z 01009KT 11/M09 A3028 RMK A01 T01051089  RH  025%=      5-min Rain = 0
KTAT 112320Z 05007KT 11/M09 A3028 RMK A01 T01061089  RH  024%=      5-min Rain = 0
KTAT 112325Z 06006KT 11/M09 A3028 RMK A01 T01081088  RH  024%=      5-min Rain = 0
KTAT 112330Z 04006KT 11/M09 A3028 RMK A01 T01121088  RH  024%=      5-min Rain = 0
KTAT 112335Z 04007KT 11/M09 A3028 RMK A01 T01141090  RH  023%=      5-min Rain = 0
KTAT 112340Z 07006G11KT 11/M09 A3029 RMK A01 T01141091  RH  023%=      5-min Rain = 0
KTAT 112345Z 07003KT 11/M09 A3029 RMK A01 T01111092  RH  023%=      5-min Rain = 0
KTAT 112350Z 03007KT 11/M09 A3029 RMK A01 T01081092  RH  023%=      5-min Rain = 0
KTAT 112355Z 05006G11KT 11/M09 A3029 RMK A01 T01051093  RH  024%=      5-min Rain = 0
KTAT 120000Z 06006KT 10/M09 A3029 RMK A01 T01031092  RH  024%=      5-min Rain = 0
KTAT 120005Z 04006KT 10/M09 A3029 RMK A01 T01031092  RH  024%=      5-min Rain = 0
KTAT 120010Z 04008KT 10/M09 A3029 RMK A01 T01021091  RH  025%=      5-min Rain = 0
KTAT 120015Z 03008KT 10/M09 A303 RMK A01 T01021089  RH  025%=      5-min Rain = 0
KTAT 120020Z 02009KT 10/M09 A3029 RMK A01 T01021090  RH  025%=      5-min Rain = 0
KTAT 120025Z 03008KT 10/M09 A303 RMK A01 T01011090  RH  025%=      5-min Rain = 0
KTAT 120030Z 04008KT 10/M09 A303 RMK A01 T01011089  RH  025%=      5-min Rain = 0
KTAT 120035Z 04008KT 10/M09 A303 RMK A01 T01001091  RH  025%=      5-min Rain = 0
KTAT 120040Z 04006KT 10/M09 A303 RMK A01 T01001093  RH  025%=      5-min Rain = 0
KTAT 120045Z 04006KT 10/M09 A303 RMK A01 T00991094  RH  025%=      5-min Rain = 0
KTAT 120050Z 03006KT 10/M10 A303 RMK A01 T00991096  RH  024%=      5-min Rain = 0
KTAT 120055Z 03004KT 10/M10 A3031 RMK A01 T00981097  RH  024%=      5-min Rain = 0
KTAT 120100Z 04003KT 10/M10 A3031 RMK A01 T00971097  RH  024%=      5-min Rain = 0
KTAT 120105Z 03002KT 10/M10 A3031 RMK A01 T00961096  RH  025%=      5-min Rain = 0
KTAT 120110Z 03002KT 09/M10 A3031 RMK A01 T00941097  RH  025%=      5-min Rain = 0
KTAT 120115Z 02002KT 09/M10 A3031 RMK A01 T00941097  RH  025%=      5-min Rain = 0
KTAT 120120Z 35001KT 09/M10 A3031 RMK A01 T00941096  RH  025%=      5-min Rain = 0
KTAT 120125Z 31001KT 09/M09 A3031 RMK A01 T00921094  RH  026%=      5-min Rain = 0
KTAT 120130Z 31001KT 09/M09 A3031 RMK A01 T00881093  RH  027%=      5-min Rain = 0
KTAT 120135Z 31001KT 09/M09 A3031 RMK A01 T00851091  RH  028%=      5-min Rain = 0
KTAT 120140Z 30001KT 08/M09 A3031 RMK A01 T00801090  RH  029%=      5-min Rain = 0
KTAT 120145Z 30001KT 08/M09 A3032 RMK A01 T00781090  RH  029%=      5-min Rain = 0
KTAT 120150Z 30001KT 08/M09 A3032 RMK A01 T00771090  RH  029%=      5-min Rain = 0
KTAT 120155Z 31000KT 08/M09 A3032 RMK A01 T00751092  RH  030%=      5-min Rain = 0
KTAT 120200Z 10000KT 07/M09 A3032 RMK A01 T00731093  RH  029%=      5-min Rain = 0
KTAT 120205Z 00000KT 08/M09 A3032 RMK A01 T00761094  RH  029%=      5-min Rain = 0
KTAT 120210Z 31001KT 08/M09 A3032 RMK A01 T00781094  RH  028%=      5-min Rain = 0
KTAT 120215Z 31002KT 08/M09 A3033 RMK A01 T00781092  RH  029%=      5-min Rain = 0
KTAT 120220Z 31002KT 07/M09 A3033 RMK A01 T00741091  RH  030%=      5-min Rain = 0
KTAT 120225Z 31003KT 07/M09 A3033 RMK A01 T00711089  RH  031%=      5-min Rain = 0
KTAT 120230Z 30004KT 07/M09 A3033 RMK A01 T00691089  RH  031%=      5-min Rain = 0
KTAT 120235Z 31004KT 07/M09 A3034 RMK A01 T00681088  RH  032%=      5-min Rain = 0
KTAT 120240Z 33005KT 07/M09 A3034 RMK A01 T00651088  RH  032%=      5-min Rain = 0
KTAT 120245Z 01006KT 07/M09 A3034 RMK A01 T00671093  RH  031%=      5-min Rain = 0
KTAT 120250Z 03006KT 07/M10 A3034 RMK A01 T00711097  RH  029%=      5-min Rain = 0
KTAT 120255Z 04006KT 07/M10 A3034 RMK A01 T00711098  RH  029%=      5-min Rain = 0
KTAT 120300Z 04005KT 07/M10 A3034 RMK A01 T00701099  RH  029%=      5-min Rain = 0
KTAT 120305Z 04004KT 07/M10 A3034 RMK A01 T00691099  RH  029%=      5-min Rain = 0
KTAT 120310Z 04003KT 07/M10 A3034 RMK A01 T00661098  RH  030%=      5-min Rain = 0
KTAT 120315Z 03002KT 07/M10 A3034 RMK A01 T00651098  RH  030%=      5-min Rain = 0
KTAT 120320Z 01002KT 06/M10 A3034 RMK A01 T00631096  RH  031%=      5-min Rain = 0
KTAT 120325Z 01002KT 06/M10 A3034 RMK A01 T00601095  RH  032%=      5-min Rain = 0
KTAT 120330Z 02001KT 06/M10 A3034 RMK A01 T00611096  RH  031%=      5-min Rain = 0
KTAT 120335Z 02001KT 06/M09 A3035 RMK A01 T00591094  RH  032%=      5-min Rain = 0
KTAT 120340Z 33001KT 05/M09 A3035 RMK A01 T00541092  RH  034%=      5-min Rain = 0
KTAT 120345Z 31001KT 05/M09 A3035 RMK A01 T00541092  RH  034%=      5-min Rain = 0
KTAT 120350Z 31001KT 05/M09 A3035 RMK A01 T00531092  RH  034%=      5-min Rain = 0
KTAT 120355Z 31001KT 05/M09 A3035 RMK A01 T00531092  RH  034%=      5-min Rain = 0
KTAT 120400Z 29001KT 05/M09 A3035 RMK A01 T00531091  RH  034%=      5-min Rain = 0
KTAT 120405Z 28001KT 05/M09 A3036 RMK A01 T00511090  RH  035%=      5-min Rain = 0
KTAT 120410Z 27002KT 05/M09 A3036 RMK A01 T00501090  RH  036%=      5-min Rain = 0
KTAT 120415Z 26003KT 05/M09 A3036 RMK A01 T00511090  RH  035%=      5-min Rain = 0
KTAT 120420Z 26003KT 05/M09 A3036 RMK A01 T00511089  RH  036%=      5-min Rain = 0
KTAT 120425Z 26002KT 05/M09 A3036 RMK A01 T00501088  RH  036%=      5-min Rain = 0
KTAT 120430Z 26003KT 05/M09 A3036 RMK A01 T00491087  RH  037%=      5-min Rain = 0
KTAT 120435Z 26003KT 05/M08 A3036 RMK A01 T00491084  RH  037%=      5-min Rain = 0
KTAT 120440Z 26004KT 05/M08 A3036 RMK A01 T00481082  RH  038%=      5-min Rain = 0
KTAT 120445Z 26005KT 05/M08 A3036 RMK A01 T00471082  RH  039%=      5-min Rain = 0
KTAT 120450Z 26006KT 05/M08 A3036 RMK A01 T00471080  RH  039%=      5-min Rain = 0
KTAT 120455Z 27007KT 05/M07 A3036 RMK A01 T00501069  RH  042%=      5-min Rain = 0

Page generated in 0.0159 seconds.